OIBS  Sirri Island  Airport

Iran

Add Bookmark
ICAO OIBS
IATA SXI
Type Airport
Status Operational
Latitude
25° 54' 32" N
25.908899
Longitude
54° 32' 21" E
54.539398
Local (GMT +4.5 ) UTC
May 25, 2016 05:51 am May 25, 2016 01:21
Sunrise-Sunset Local UTC
Begin Civil Twilight 05:34 am 01:04
Sunrise 06:00 am 01:30
Sunset 07:37 pm 15:07
End Civil Twilight 08:02 pm 15:32
VFR
VFR
MVFR
MVFR
IFR
IFR
LIFR
LIFR
Unknown
Unavailable

Current Weather

METAR Observed VFR
OIBS 241500Z 22008KT CAVOK 31/27 Q1001 Tue, May 24, 2016 @ 15:00 UTC
(10 Hours, 21 Minutes ago)
Visual Flight Rules
Wind Visibility Conditions
220° at 8 knots (15 kph) 10 km or more
  • No significant weather
Temperatures Readings Precipitation
Current Temp
31°C
88°F
Dewpoint
27°C
81°F
Heat Index
41°C
106°
Humidity 79%
Altimeter 29.56" Hg
Sea Level Pressure 1,001 mb
Field Elevation
14 m
46 ft
None Recorded

Additional weather within a 92.6km radius of OIBS

Map ICAO Location
OIBA 49.4km E (094°)
OIBL 74.8km N/NE (022°)
OIBK 88.5km NW (321°)
VFR
VFR
MVFR
MVFR
IFR
IFR
LIFR
LIFR
Unknown
Unavailable
-
-

CheckWX.com is intended as a tool to help pilots better visualize weather data. It is not intended as a substitute for an official weather briefing obtained from a Flight Service Station. CheckWX.com does not meet the FAA requirements for an official pre-flight weather briefing. Therefore, it's important that pilots still call and obtain an official FSS pre-flight weather briefing.

© 2007-2016 CheckWX.com
01:21:28 UTC